createdAt,value
2023-05-18T00:00:10.950Z,8.30
2023-05-18T00:02:41.372Z,8.30
2023-05-18T00:05:10.394Z,8.60
2023-05-18T00:07:37.498Z,8.20
2023-05-18T00:10:04.814Z,8.20
2023-05-18T00:12:31.689Z,8.20
2023-05-18T00:14:58.679Z,8.30
2023-05-18T00:17:25.631Z,8.50
2023-05-18T00:19:52.734Z,8.10
2023-05-18T00:22:20.068Z,8.10
2023-05-18T00:24:47.889Z,8.10
2023-05-18T00:27:16.214Z,8.10
2023-05-18T00:29:43.141Z,8.40
2023-05-18T00:32:10.129Z,8.00
2023-05-18T00:34:37.075Z,8.00
2023-05-18T00:37:04.259Z,8.00
2023-05-18T00:39:31.371Z,8.00
2023-05-18T00:41:58.369Z,8.30
2023-05-18T00:44:25.567Z,7.90
2023-05-18T00:46:52.522Z,7.90
2023-05-18T00:49:19.677Z,7.90
2023-05-18T00:51:47.098Z,7.90
2023-05-18T00:54:14.921Z,7.90
2023-05-18T00:56:42.235Z,7.90
2023-05-18T00:59:10.435Z,7.90
2023-05-18T01:01:43.413Z,7.80
2023-05-18T01:04:14.107Z,7.80
2023-05-18T01:06:41.935Z,7.80
2023-05-18T01:09:11.800Z,7.80
2023-05-18T01:12:04.552Z,7.80
2023-05-18T01:14:37.416Z,7.70
2023-05-18T01:17:44.007Z,8.00
2023-05-18T01:20:59.562Z,7.60
2023-05-18T01:24:00.940Z,7.60
2023-05-18T01:26:30.153Z,7.60
2023-05-18T01:29:00.725Z,7.50
2023-05-18T01:31:28.966Z,7.50
2023-05-18T01:33:55.983Z,7.40
2023-05-18T01:36:22.934Z,7.40
2023-05-18T01:38:51.361Z,7.30
2023-05-18T01:41:31.375Z,7.30
2023-05-18T01:44:15.693Z,7.20
2023-05-18T01:47:00.627Z,7.20
2023-05-18T01:49:33.495Z,7.20
2023-05-18T01:52:06.320Z,7.10
2023-05-18T01:54:36.253Z,7.10
2023-05-18T01:59:33.847Z,7.00
2023-05-18T02:02:01.482Z,7.00
2023-05-18T02:04:28.800Z,7.00
2023-05-18T02:06:56.145Z,6.90
2023-05-18T02:09:23.429Z,6.90
2023-05-18T02:11:50.493Z,6.80
2023-05-18T02:14:17.565Z,6.80
2023-05-18T02:16:47.241Z,6.80
2023-05-18T02:19:15.070Z,7.20
2023-05-18T02:21:43.596Z,6.80
2023-05-18T02:24:11.794Z,7.10
2023-05-18T02:26:39.313Z,6.70
2023-05-18T02:29:06.658Z,7.00
2023-05-18T02:31:33.676Z,6.70
2023-05-18T02:34:01.412Z,6.70
2023-05-18T02:36:28.389Z,6.60
2023-05-18T02:38:55.645Z,6.60
2023-05-18T02:41:23.278Z,6.60
2023-05-18T02:43:50.149Z,6.60
2023-05-18T02:46:17.130Z,6.60
2023-05-18T02:48:45.957Z,6.80
2023-05-18T02:51:13.552Z,6.60
2023-05-18T02:53:40.502Z,6.60
2023-05-18T02:56:07.730Z,6.60
2023-05-18T02:58:34.870Z,6.50
2023-05-18T03:01:03.509Z,6.50
2023-05-18T03:03:30.466Z,6.80
2023-05-18T03:05:57.472Z,6.60
2023-05-18T03:08:26.946Z,6.50
2023-05-18T03:10:54.101Z,6.40
2023-05-18T03:13:21.132Z,6.40
2023-05-18T03:15:49.278Z,6.80
2023-05-18T03:18:16.569Z,6.40
2023-05-18T03:20:44.267Z,6.70
2023-05-18T03:23:11.377Z,6.30
2023-05-18T03:25:38.256Z,6.30
2023-05-18T03:28:05.683Z,6.30
2023-05-18T03:30:33.741Z,6.30
2023-05-18T03:33:01.969Z,6.30
2023-05-18T03:35:29.589Z,6.20
2023-05-18T03:37:56.863Z,6.20
2023-05-18T03:40:24.994Z,6.30
2023-05-18T03:42:51.956Z,6.40
2023-05-18T03:45:19.110Z,6.40
2023-05-18T03:47:46.272Z,6.60
2023-05-18T03:50:13.223Z,6.50
2023-05-18T03:52:41.444Z,6.50
2023-05-18T03:55:08.753Z,6.60
2023-05-18T03:57:35.761Z,6.60
2023-05-18T04:00:12.265Z,7.00
2023-05-18T04:02:40.116Z,6.70
2023-05-18T04:05:08.272Z,6.80
2023-05-18T04:07:44.063Z,6.90
2023-05-18T04:10:12.808Z,7.00
2023-05-18T04:12:40.336Z,7.10
2023-05-18T04:15:07.941Z,7.20
2023-05-18T04:17:35.678Z,7.20
2023-05-18T04:20:11.557Z,7.50
2023-05-18T04:22:43.379Z,7.80
2023-05-18T04:25:14.116Z,7.80
2023-05-18T04:27:45.549Z,7.60
2023-05-18T04:30:13.782Z,7.70
2023-05-18T04:32:43.255Z,7.80
2023-05-18T04:35:11.630Z,8.00
2023-05-18T04:37:41.592Z,8.10
2023-05-18T04:40:16.924Z,8.30
2023-05-18T04:42:48.409Z,8.40
2023-05-18T04:45:17.770Z,8.70
2023-05-18T04:47:46.709Z,8.90
2023-05-18T04:50:25.910Z,9.30
2023-05-18T04:52:53.918Z,9.50
2023-05-18T04:55:26.391Z,9.80
2023-05-18T04:57:56.545Z,10.40
2023-05-18T05:00:24.941Z,10.70
2023-05-18T05:02:52.425Z,11.20
2023-05-18T05:05:19.538Z,11.80
2023-05-18T05:07:46.448Z,12.60
2023-05-18T05:10:13.389Z,13.40
2023-05-18T05:12:41.279Z,14.20
2023-05-18T05:15:09.569Z,15.10
2023-05-18T05:17:36.734Z,16.00
2023-05-18T05:20:04.344Z,16.90
2023-05-18T05:22:31.308Z,17.40
2023-05-18T05:24:58.185Z,17.80
2023-05-18T05:27:26.220Z,18.40
2023-05-18T05:29:53.177Z,19.30
2023-05-18T05:32:20.064Z,20.60
2023-05-18T05:34:48.057Z,21.50
2023-05-18T05:37:14.922Z,22.50
2023-05-18T05:39:41.994Z,23.10
2023-05-18T05:42:09.424Z,23.20
2023-05-18T05:44:36.702Z,23.20
2023-05-18T05:47:04.187Z,23.00
2023-05-18T05:49:31.083Z,22.40
2023-05-18T05:51:58.109Z,22.20
2023-05-18T05:54:25.181Z,22.10
2023-05-18T05:56:52.235Z,21.80
2023-05-18T05:59:19.118Z,21.90
2023-05-18T06:01:46.070Z,22.10
2023-05-18T06:04:13.037Z,22.20
2023-05-18T06:06:39.997Z,22.50
2023-05-18T06:09:06.986Z,22.40
2023-05-18T06:11:33.956Z,21.90
2023-05-18T06:14:01.098Z,21.60
2023-05-18T06:16:28.082Z,21.70
2023-05-18T06:18:54.981Z,22.00
2023-05-18T06:21:22.516Z,22.20
2023-05-18T06:23:49.416Z,22.20
2023-05-18T06:26:17.003Z,22.70
2023-05-18T06:28:44.005Z,23.10
2023-05-18T06:31:11.141Z,23.50
2023-05-18T06:33:38.497Z,23.70
2023-05-18T06:36:05.761Z,24.10
2023-05-18T06:38:32.665Z,24.70
2023-05-18T06:40:59.629Z,25.10
2023-05-18T06:43:28.390Z,25.20
2023-05-18T06:45:56.388Z,25.50
2023-05-18T06:48:25.751Z,25.10
2023-05-18T06:50:52.742Z,24.90
2023-05-18T06:53:19.651Z,25.10
2023-05-18T06:55:47.059Z,25.50
2023-05-18T06:58:14.030Z,25.80
2023-05-18T07:00:41.105Z,25.80
2023-05-18T07:03:08.530Z,25.70
2023-05-18T07:05:39.145Z,26.10
2023-05-18T07:08:07.245Z,26.50
2023-05-18T07:10:35.801Z,26.70
2023-05-18T07:13:02.948Z,27.10
2023-05-18T07:15:30.420Z,27.30
2023-05-18T07:17:57.625Z,27.90
2023-05-18T07:20:26.451Z,28.50
2023-05-18T07:22:55.808Z,28.70
2023-05-18T07:25:23.392Z,28.90
2023-05-18T07:27:52.211Z,28.30
2023-05-18T07:30:19.240Z,27.70
2023-05-18T07:32:46.309Z,27.60
2023-05-18T07:35:13.585Z,27.40
2023-05-18T07:37:40.503Z,27.40
2023-05-18T07:40:09.839Z,27.60
2023-05-18T07:42:38.399Z,27.30
2023-05-18T07:45:05.963Z,27.30
2023-05-18T07:47:32.917Z,27.20
2023-05-18T07:50:00.229Z,27.40
2023-05-18T07:52:27.128Z,27.40
2023-05-18T07:54:56.531Z,27.20
2023-05-18T07:57:24.621Z,27.50
2023-05-18T07:59:51.711Z,28.00
2023-05-18T08:02:19.954Z,28.80
2023-05-18T08:04:48.249Z,29.40
2023-05-18T08:07:15.265Z,29.40
2023-05-18T08:09:42.365Z,29.60
2023-05-18T08:12:09.363Z,29.50
2023-05-18T08:14:36.359Z,28.70
2023-05-18T08:17:04.713Z,27.30
2023-05-18T08:19:32.033Z,25.80
2023-05-18T08:21:59.145Z,24.50
2023-05-18T08:24:26.189Z,23.20
2023-05-18T08:26:53.206Z,22.40
2023-05-18T08:29:20.124Z,21.90
2023-05-18T08:31:49.185Z,21.10
2023-05-18T08:34:16.723Z,20.30
2023-05-18T08:36:45.661Z,19.70
2023-05-18T08:39:12.862Z,19.50
2023-05-18T08:42:03.257Z,19.20
2023-05-18T08:44:38.376Z,18.70
2023-05-18T08:47:09.673Z,18.30
2023-05-18T08:49:37.259Z,18.10
2023-05-18T08:52:05.580Z,17.80
2023-05-18T08:54:33.409Z,17.70
2023-05-18T08:57:03.153Z,17.80
2023-05-18T08:59:31.884Z,17.90
2023-05-18T09:01:59.227Z,18.00
2023-05-18T09:04:27.206Z,18.00
2023-05-18T09:06:56.465Z,18.10
2023-05-18T09:09:25.169Z,18.20
2023-05-18T09:11:52.443Z,18.20
2023-05-18T09:14:19.825Z,18.10
2023-05-18T09:16:47.181Z,18.00
2023-05-18T09:19:14.399Z,18.00
2023-05-18T09:21:42.590Z,17.90
2023-05-18T09:24:09.825Z,17.80
2023-05-18T09:26:37.922Z,17.80
2023-05-18T09:29:19.847Z,17.80
2023-05-18T09:31:48.429Z,17.60
2023-05-18T09:34:18.920Z,17.50
2023-05-18T09:36:57.709Z,17.30
2023-05-18T09:39:25.496Z,17.30
2023-05-18T09:41:57.776Z,17.30
2023-05-18T09:44:34.972Z,17.40
2023-05-18T09:47:03.170Z,17.50
2023-05-18T09:49:33.507Z,17.80
2023-05-18T09:52:00.517Z,17.90
2023-05-18T09:54:27.668Z,18.40
2023-05-18T09:57:08.846Z,18.60
2023-05-18T09:59:37.134Z,19.00
2023-05-18T10:02:12.049Z,19.10
2023-05-18T10:04:41.536Z,19.10
2023-05-18T10:07:16.741Z,19.20
2023-05-18T10:09:45.346Z,19.30
2023-05-18T10:12:12.976Z,19.60
2023-05-18T10:14:44.686Z,19.80
2023-05-18T10:17:17.223Z,19.70
2023-05-18T10:19:45.800Z,19.40
2023-05-18T10:22:16.653Z,19.10
2023-05-18T10:24:50.190Z,19.00
2023-05-18T10:27:19.986Z,18.90
2023-05-18T10:29:47.472Z,18.70
2023-05-18T10:32:16.807Z,18.70
2023-05-18T10:34:45.319Z,18.60
2023-05-18T10:37:14.477Z,18.40
2023-05-18T10:39:45.715Z,18.30
2023-05-18T10:42:16.102Z,18.10
2023-05-18T10:44:44.756Z,18.10
2023-05-18T10:47:15.128Z,18.00
2023-05-18T10:49:49.427Z,18.00
2023-05-18T10:52:20.930Z,17.90
2023-05-18T10:54:49.070Z,18.20
2023-05-18T10:57:19.980Z,18.50
2023-05-18T10:59:48.504Z,19.00
2023-05-18T11:02:18.467Z,19.30
2023-05-18T11:04:47.944Z,19.30
2023-05-18T11:07:15.935Z,19.50
2023-05-18T11:09:44.397Z,19.40
2023-05-18T11:12:18.940Z,19.30
2023-05-18T11:14:55.098Z,18.90
2023-05-18T11:17:23.907Z,18.90
2023-05-18T11:20:09.528Z,19.10
2023-05-18T11:22:44.987Z,19.30
2023-05-18T11:25:24.479Z,19.70
2023-05-18T11:27:53.436Z,19.80
2023-05-18T11:30:36.479Z,19.90
2023-05-18T11:33:15.049Z,20.00
2023-05-18T11:36:07.597Z,19.90
2023-05-18T11:39:11.393Z,19.70
2023-05-18T11:41:44.589Z,19.70
2023-05-18T11:44:12.425Z,20.00
2023-05-18T11:47:04.870Z,19.90
2023-05-18T11:49:38.447Z,19.90
2023-05-18T11:52:22.492Z,20.00
2023-05-18T11:54:53.630Z,20.30
2023-05-18T11:57:39.011Z,20.70
2023-05-18T12:00:10.609Z,20.80
2023-05-18T12:02:40.177Z,21.20
2023-05-18T12:05:09.275Z,21.20
2023-05-18T12:07:38.341Z,21.00
2023-05-18T12:10:21.601Z,20.90
2023-05-18T12:12:53.549Z,20.70
2023-05-18T12:15:23.486Z,20.40
2023-05-18T12:17:52.904Z,20.00
2023-05-18T12:20:25.476Z,20.00
2023-05-18T12:22:55.694Z,20.10
2023-05-18T12:25:25.159Z,20.20
2023-05-18T12:27:56.209Z,20.10
2023-05-18T12:30:26.612Z,19.80
2023-05-18T12:32:56.868Z,19.50
2023-05-18T12:35:29.025Z,19.30
2023-05-18T12:38:00.885Z,19.00
2023-05-18T12:40:38.640Z,18.80
2023-05-18T12:43:06.636Z,18.80
2023-05-18T12:45:35.427Z,18.90
2023-05-18T12:48:13.652Z,18.70
2023-05-18T12:50:48.293Z,18.70
2023-05-18T12:53:16.465Z,18.80
2023-05-18T12:55:43.644Z,18.90
2023-05-18T12:58:19.264Z,19.00
2023-05-18T13:00:49.165Z,19.10
2023-05-18T13:03:20.788Z,19.20
2023-05-18T13:06:04.264Z,19.40
2023-05-18T13:08:32.675Z,19.50
2023-05-18T13:11:18.008Z,19.50
2023-05-18T13:13:58.512Z,19.20
2023-05-18T13:16:26.130Z,19.00
2023-05-18T13:18:57.958Z,18.90
2023-05-18T13:21:25.683Z,18.90
2023-05-18T13:23:53.049Z,18.80
2023-05-18T13:26:22.468Z,18.80
2023-05-18T13:28:54.429Z,18.90
2023-05-18T13:31:22.313Z,18.90
2023-05-18T13:33:50.016Z,19.10
2023-05-18T13:36:17.951Z,19.10
2023-05-18T13:38:45.311Z,19.10
2023-05-18T13:41:15.387Z,19.00
2023-05-18T13:43:42.841Z,18.80
2023-05-18T13:46:10.296Z,18.70
2023-05-18T13:48:37.702Z,18.60
2023-05-18T13:51:05.398Z,18.50
2023-05-18T13:53:32.829Z,18.40
2023-05-18T13:55:59.953Z,18.40
2023-05-18T13:58:26.955Z,18.40
2023-05-18T14:00:54.777Z,18.50
2023-05-18T14:03:22.085Z,18.60
2023-05-18T14:05:49.753Z,18.80
2023-05-18T14:08:17.174Z,18.90
2023-05-18T14:10:44.400Z,18.70
2023-05-18T14:13:11.536Z,18.70
2023-05-18T14:15:38.681Z,18.70
2023-05-18T14:18:06.059Z,18.50
2023-05-18T14:20:34.044Z,18.60
2023-05-18T14:23:04.900Z,18.70
2023-05-18T14:25:32.691Z,18.80
2023-05-18T14:27:59.952Z,18.90
2023-05-18T14:30:26.995Z,19.10
2023-05-18T14:32:54.049Z,19.10
2023-05-18T14:35:21.036Z,19.10
2023-05-18T14:37:48.051Z,19.20
2023-05-18T14:40:15.242Z,19.40
2023-05-18T14:42:42.287Z,19.50
2023-05-18T14:45:10.094Z,19.60
2023-05-18T14:47:37.164Z,19.50
2023-05-18T14:50:04.384Z,19.60
2023-05-18T14:52:31.492Z,19.70
2023-05-18T14:54:58.575Z,19.70
2023-05-18T14:57:27.005Z,19.80
2023-05-18T14:59:54.529Z,19.80
2023-05-18T15:02:22.283Z,19.70
2023-05-18T15:04:49.624Z,19.70
2023-05-18T15:07:16.656Z,19.60
2023-05-18T15:09:43.688Z,19.60
2023-05-18T15:12:10.914Z,19.70
2023-05-18T15:14:38.197Z,19.70
2023-05-18T15:17:07.309Z,19.20
2023-05-18T15:19:34.381Z,19.20
2023-05-18T15:22:01.526Z,19.00
2023-05-18T15:24:28.873Z,18.80
2023-05-18T15:26:56.000Z,18.70
2023-05-18T15:29:23.508Z,18.60
2023-05-18T15:31:51.524Z,18.70
2023-05-18T15:34:18.613Z,18.70
2023-05-18T15:36:46.236Z,18.70
2023-05-18T15:39:13.628Z,18.80
2023-05-18T15:41:40.749Z,18.80
2023-05-18T15:44:07.865Z,18.80
2023-05-18T15:46:35.877Z,18.80
2023-05-18T15:49:04.001Z,18.80
2023-05-18T15:51:31.508Z,18.70
2023-05-18T15:53:58.447Z,18.50
2023-05-18T15:56:25.792Z,18.40
2023-05-18T15:58:52.861Z,18.40
2023-05-18T16:01:41.359Z,18.50
2023-05-18T16:04:26.922Z,18.70
2023-05-18T16:06:53.955Z,18.60
2023-05-18T16:09:20.830Z,18.50
2023-05-18T16:11:47.759Z,18.50
2023-05-18T16:14:14.753Z,18.50
2023-05-18T16:16:41.618Z,18.50
2023-05-18T16:19:08.658Z,18.40
2023-05-18T16:21:53.987Z,18.40
2023-05-18T16:24:20.828Z,18.30
2023-05-18T16:26:47.676Z,18.30
2023-05-18T16:29:14.646Z,18.20
2023-05-18T16:31:41.700Z,18.10
2023-05-18T16:34:08.631Z,18.00
2023-05-18T16:36:36.555Z,18.00
2023-05-18T16:39:03.618Z,18.10
2023-05-18T16:41:30.547Z,18.20
2023-05-18T16:43:57.361Z,18.20
2023-05-18T16:46:24.525Z,18.70
2023-05-18T16:48:51.484Z,18.40
2023-05-18T16:51:18.528Z,18.40
2023-05-18T16:53:45.538Z,18.40
2023-05-18T16:56:12.616Z,18.30
2023-05-18T16:58:39.525Z,18.20
2023-05-18T17:01:19.256Z,18.00
2023-05-18T17:03:53.371Z,18.00
2023-05-18T17:06:21.248Z,17.90
2023-05-18T17:08:50.516Z,17.80
2023-05-18T17:11:17.394Z,17.80
2023-05-18T17:13:44.636Z,17.80
2023-05-18T17:16:14.159Z,17.60
2023-05-18T17:18:41.489Z,17.40
2023-05-18T17:21:08.414Z,17.30
2023-05-18T17:23:35.761Z,17.20
2023-05-18T17:26:06.621Z,17.20
2023-05-18T17:28:33.884Z,17.20
2023-05-18T17:31:00.794Z,17.10
2023-05-18T17:33:27.882Z,17.10
2023-05-18T17:35:55.332Z,17.10
2023-05-18T17:38:22.722Z,17.20
2023-05-18T17:40:49.710Z,17.50
2023-05-18T17:43:16.644Z,17.20
2023-05-18T17:45:43.618Z,17.10
2023-05-18T17:48:10.984Z,17.10
2023-05-18T17:50:38.131Z,17.20
2023-05-18T17:53:05.144Z,17.20
2023-05-18T17:55:32.357Z,17.10
2023-05-18T17:58:01.054Z,17.00
2023-05-18T18:00:28.546Z,16.90
2023-05-18T18:02:55.738Z,16.70
2023-05-18T18:05:23.000Z,16.50
2023-05-18T18:07:50.280Z,16.50
2023-05-18T18:10:17.661Z,16.40
2023-05-18T18:12:44.668Z,16.40
2023-05-18T18:15:11.967Z,16.30
2023-05-18T18:17:39.110Z,16.30
2023-05-18T18:20:06.860Z,16.30
2023-05-18T18:22:35.690Z,16.20
2023-05-18T18:25:03.187Z,16.10
2023-05-18T18:27:30.135Z,16.00
2023-05-18T18:29:57.330Z,15.90
2023-05-18T18:32:24.302Z,16.00
2023-05-18T18:34:51.610Z,15.70
2023-05-18T18:37:18.627Z,15.60
2023-05-18T18:39:45.647Z,15.60
2023-05-18T18:42:12.657Z,15.50
2023-05-18T18:44:42.256Z,15.40
2023-05-18T18:47:09.115Z,15.30
2023-05-18T18:49:36.162Z,15.20
2023-05-18T18:52:03.223Z,15.20
2023-05-18T18:54:30.238Z,15.10
2023-05-18T18:56:57.621Z,15.00
2023-05-18T18:59:24.548Z,15.00
2023-05-18T19:01:51.554Z,14.90
2023-05-18T19:04:20.283Z,14.90
2023-05-18T19:06:48.360Z,14.90
2023-05-18T19:09:15.703Z,15.20
2023-05-18T19:11:49.634Z,14.80
2023-05-18T19:14:19.996Z,14.70
2023-05-18T19:16:59.539Z,14.70
2023-05-18T19:19:30.779Z,14.70
2023-05-18T19:21:57.889Z,14.70
2023-05-18T19:24:25.517Z,14.50
2023-05-18T19:26:52.498Z,14.50
2023-05-18T19:29:20.211Z,14.50
2023-05-18T19:31:47.229Z,14.40
2023-05-18T19:34:14.233Z,14.30
2023-05-18T19:36:41.257Z,14.30
2023-05-18T19:39:08.176Z,14.20
2023-05-18T19:41:36.140Z,14.10
2023-05-18T19:44:03.162Z,14.10
2023-05-18T19:46:30.105Z,14.10
2023-05-18T19:48:57.294Z,14.10
2023-05-18T19:51:24.210Z,14.00
2023-05-18T19:53:51.032Z,14.00
2023-05-18T19:56:17.983Z,14.00
2023-05-18T19:58:44.978Z,14.00
2023-05-18T20:01:11.900Z,14.00
2023-05-18T20:03:40.790Z,13.90
2023-05-18T20:06:10.186Z,13.80
2023-05-18T20:08:37.912Z,13.70
2023-05-18T20:11:04.869Z,13.70
2023-05-18T20:13:31.828Z,13.70
2023-05-18T20:16:08.665Z,13.70
2023-05-18T20:18:53.883Z,13.90
2023-05-18T20:21:38.218Z,13.50
2023-05-18T20:24:05.604Z,13.70
2023-05-18T20:26:32.737Z,13.60
2023-05-18T20:28:59.992Z,13.70
2023-05-18T20:31:27.734Z,13.50
2023-05-18T20:33:57.521Z,13.40
2023-05-18T20:36:25.348Z,13.40
2023-05-18T20:38:54.224Z,13.30
2023-05-18T20:41:22.761Z,13.40
2023-05-18T20:43:51.192Z,13.30
2023-05-18T20:46:24.957Z,13.40
2023-05-18T20:48:55.058Z,13.30
2023-05-18T20:51:23.230Z,13.30
2023-05-18T20:53:50.620Z,13.20
2023-05-18T20:56:18.935Z,13.30
2023-05-18T20:58:48.750Z,13.20
2023-05-18T21:01:21.045Z,13.10
2023-05-18T21:03:48.463Z,13.20
2023-05-18T21:06:15.817Z,13.20
2023-05-18T21:08:45.623Z,13.40
2023-05-18T21:11:12.630Z,13.00
2023-05-18T21:13:39.665Z,13.00
2023-05-18T21:18:57.241Z,12.90
2023-05-18T21:21:24.240Z,12.90
2023-05-18T21:23:51.360Z,12.80
2023-05-18T21:26:18.314Z,12.80
2023-05-18T21:28:45.659Z,12.70
2023-05-18T21:31:12.625Z,12.70
2023-05-18T21:33:39.835Z,12.70
2023-05-18T21:36:09.017Z,12.60
2023-05-18T21:38:36.096Z,12.60
2023-05-18T21:41:03.273Z,12.60
2023-05-18T21:43:30.260Z,12.50
2023-05-18T21:45:57.238Z,12.50
2023-05-18T21:48:24.127Z,12.40
2023-05-18T21:50:51.169Z,12.40
2023-05-18T21:53:18.901Z,12.40
2023-05-18T21:55:45.773Z,12.40
2023-05-18T21:58:12.697Z,12.30
2023-05-18T22:00:39.698Z,12.30
2023-05-18T22:03:06.781Z,12.50
2023-05-18T22:05:33.782Z,12.30
2023-05-18T22:08:00.784Z,12.30
2023-05-18T22:10:28.137Z,12.30
2023-05-18T22:12:55.088Z,12.40
2023-05-18T22:15:22.735Z,12.30
2023-05-18T22:17:49.839Z,12.30
2023-05-18T22:20:17.142Z,12.30
2023-05-18T22:22:44.244Z,12.30
2023-05-18T22:25:11.356Z,12.60
2023-05-18T22:27:38.965Z,12.60
2023-05-18T22:30:07.480Z,12.20
2023-05-18T22:32:34.740Z,12.20
2023-05-18T22:35:02.075Z,12.50
2023-05-18T22:37:29.067Z,12.00
2023-05-18T22:39:56.126Z,11.90
2023-05-18T22:42:23.122Z,11.90
2023-05-18T22:44:50.115Z,11.90
2023-05-18T22:47:20.082Z,11.80
2023-05-18T22:49:49.147Z,11.80
2023-05-18T22:52:17.942Z,11.80
2023-05-18T22:54:45.119Z,11.80
2023-05-18T22:57:12.801Z,11.70
2023-05-18T22:59:40.044Z,11.70
2023-05-18T23:02:07.275Z,11.70
2023-05-18T23:04:35.413Z,11.70
2023-05-18T23:07:04.143Z,11.90
2023-05-18T23:09:31.370Z,11.70
2023-05-18T23:12:01.242Z,11.70
2023-05-18T23:14:32.559Z,11.70
2023-05-18T23:17:03.701Z,11.90
2023-05-18T23:19:30.672Z,11.90
2023-05-18T23:21:57.720Z,11.60
2023-05-18T23:24:24.763Z,11.60
2023-05-18T23:26:51.866Z,11.60
2023-05-18T23:29:18.860Z,11.60
2023-05-18T23:31:46.100Z,11.60
2023-05-18T23:34:13.399Z,11.60
2023-05-18T23:36:42.788Z,11.60
2023-05-18T23:39:10.594Z,11.50
2023-05-18T23:41:39.138Z,11.80
2023-05-18T23:44:06.961Z,11.50
2023-05-18T23:46:35.025Z,11.50
2023-05-18T23:49:02.436Z,11.50
2023-05-18T23:51:35.822Z,11.40
2023-05-18T23:54:09.419Z,11.40
2023-05-18T23:56:36.891Z,11.40
2023-05-18T23:59:04.279Z,11.40
